sensor_id;sensor_type;location;lat;lon;timestamp;pressure;altitude;pressure_sealevel;temperature;humidity
2761;BME280;15420;48.636;9.798;2023-02-04T00:00:28;97713.53;;;8.53;100.00
2761;BME280;15420;48.636;9.798;2023-02-04T00:02:55;97710.97;;;8.53;100.00
2761;BME280;15420;48.636;9.798;2023-02-04T00:05:24;97705.38;;;8.43;100.00
2761;BME280;15420;48.636;9.798;2023-02-04T00:07:52;97707.72;;;8.38;100.00
2761;BME280;15420;48.636;9.798;2023-02-04T00:10:18;97701.03;;;8.42;100.00
2761;BME280;15420;48.636;9.798;2023-02-04T00:12:46;97708.00;;;8.44;100.00
2761;BME280;15420;48.636;9.798;2023-02-04T00:15:12;97709.00;;;8.48;100.00
2761;BME280;15420;48.636;9.798;2023-02-04T00:17:41;97703.00;;;8.47;100.00
2761;BME280;15420;48.636;9.798;2023-02-04T00:20:08;97693.34;;;8.42;100.00
2761;BME280;15420;48.636;9.798;2023-02-04T00:22:36;97698.00;;;8.50;100.00
2761;BME280;15420;48.636;9.798;2023-02-04T00:25:05;97707.19;;;8.45;100.00
2761;BME280;15420;48.636;9.798;2023-02-04T00:27:31;97709.88;;;8.48;100.00
2761;BME280;15420;48.636;9.798;2023-02-04T00:29:57;97707.25;;;8.47;100.00
2761;BME280;15420;48.636;9.798;2023-02-04T00:32:25;97710.09;;;8.53;100.00
2761;BME280;15420;48.636;9.798;2023-02-04T00:34:54;97719.34;;;8.49;100.00
2761;BME280;15420;48.636;9.798;2023-02-04T00:37:23;97725.97;;;8.44;100.00
2761;BME280;15420;48.636;9.798;2023-02-04T00:39:51;97731.25;;;8.47;100.00
2761;BME280;15420;48.636;9.798;2023-02-04T00:42:18;97743.47;;;8.53;100.00
2761;BME280;15420;48.636;9.798;2023-02-04T00:44:44;97740.09;;;8.54;100.00
2761;BME280;15420;48.636;9.798;2023-02-04T00:47:10;97748.75;;;8.56;100.00
2761;BME280;15420;48.636;9.798;2023-02-04T00:49:36;97754.44;;;8.49;100.00
2761;BME280;15420;48.636;9.798;2023-02-04T00:52:05;97750.50;;;8.57;100.00
2761;BME280;15420;48.636;9.798;2023-02-04T00:54:31;97747.72;;;8.52;100.00
2761;BME280;15420;48.636;9.798;2023-02-04T00:56:57;97746.25;;;8.58;100.00
2761;BME280;15420;48.636;9.798;2023-02-04T00:59:26;97746.13;;;8.55;100.00
2761;BME280;15420;48.636;9.798;2023-02-04T01:01:52;97763.28;;;8.56;100.00
2761;BME280;15420;48.636;9.798;2023-02-04T01:04:21;97765.19;;;8.60;100.00
2761;BME280;15420;48.636;9.798;2023-02-04T01:06:50;97770.13;;;8.55;100.00
2761;BME280;15420;48.636;9.798;2023-02-04T01:09:18;97772.06;;;8.61;100.00
2761;BME280;15420;48.636;9.798;2023-02-04T01:11:45;97769.56;;;8.62;100.00
2761;BME280;15420;48.636;9.798;2023-02-04T01:14:13;97774.38;;;8.55;100.00
2761;BME280;15420;48.636;9.798;2023-02-04T01:16:41;97777.75;;;8.53;100.00
2761;BME280;15420;48.636;9.798;2023-02-04T01:19:08;97781.94;;;8.51;100.00
2761;BME280;15420;48.636;9.798;2023-02-04T01:21:37;97772.53;;;8.52;100.00
2761;BME280;15420;48.636;9.798;2023-02-04T01:24:03;97774.22;;;8.51;100.00
2761;BME280;15420;48.636;9.798;2023-02-04T01:26:29;97782.81;;;8.52;100.00
2761;BME280;15420;48.636;9.798;2023-02-04T01:28:55;97785.03;;;8.44;100.00
2761;BME280;15420;48.636;9.798;2023-02-04T01:31:21;97795.31;;;8.44;100.00
2761;BME280;15420;48.636;9.798;2023-02-04T01:33:50;97798.75;;;8.45;100.00
2761;BME280;15420;48.636;9.798;2023-02-04T01:36:19;97798.69;;;8.43;100.00
2761;BME280;15420;48.636;9.798;2023-02-04T01:38:49;97810.66;;;8.43;100.00
2761;BME280;15420;48.636;9.798;2023-02-04T01:41:18;97815.13;;;8.47;100.00
2761;BME280;15420;48.636;9.798;2023-02-04T01:43:45;97819.38;;;8.46;100.00
2761;BME280;15420;48.636;9.798;2023-02-04T01:46:12;97817.47;;;8.42;100.00
2761;BME280;15420;48.636;9.798;2023-02-04T01:48:42;97805.50;;;8.43;100.00
2761;BME280;15420;48.636;9.798;2023-02-04T01:51:14;97802.00;;;8.41;100.00
2761;BME280;15420;48.636;9.798;2023-02-04T01:53:42;97808.59;;;8.36;100.00
2761;BME280;15420;48.636;9.798;2023-02-04T01:56:18;97810.78;;;8.46;100.00
2761;BME280;15420;48.636;9.798;2023-02-04T01:58:46;97821.72;;;8.42;100.00
2761;BME280;15420;48.636;9.798;2023-02-04T02:01:14;97808.81;;;8.40;100.00
2761;BME280;15420;48.636;9.798;2023-02-04T02:03:43;97817.00;;;8.51;100.00
2761;BME280;15420;48.636;9.798;2023-02-04T02:06:14;97832.00;;;8.42;100.00
2761;BME280;15420;48.636;9.798;2023-02-04T02:08:42;97822.19;;;8.33;100.00
2761;BME280;15420;48.636;9.798;2023-02-04T02:11:11;97826.22;;;8.28;100.00
2761;BME280;15420;48.636;9.798;2023-02-04T02:13:37;97833.47;;;8.37;100.00
2761;BME280;15420;48.636;9.798;2023-02-04T02:16:05;97830.91;;;8.37;100.00
2761;BME280;15420;48.636;9.798;2023-02-04T02:18:31;97842.59;;;8.30;100.00
2761;BME280;15420;48.636;9.798;2023-02-04T02:21:01;97832.97;;;8.26;100.00
2761;BME280;15420;48.636;9.798;2023-02-04T02:23:54;97845.16;;;8.30;100.00
2761;BME280;15420;48.636;9.798;2023-02-04T02:26:26;97841.28;;;8.20;100.00
2761;BME280;15420;48.636;9.798;2023-02-04T02:28:53;97841.84;;;8.33;100.00
2761;BME280;15420;48.636;9.798;2023-02-04T02:31:21;97846.91;;;8.31;100.00
2761;BME280;15420;48.636;9.798;2023-02-04T02:33:47;97849.19;;;8.25;100.00
2761;BME280;15420;48.636;9.798;2023-02-04T02:36:18;97846.63;;;8.25;100.00
2761;BME280;15420;48.636;9.798;2023-02-04T02:38:44;97850.00;;;8.24;100.00
2761;BME280;15420;48.636;9.798;2023-02-04T02:41:11;97849.84;;;8.21;100.00
2761;BME280;15420;48.636;9.798;2023-02-04T02:43:41;97853.28;;;8.22;100.00
2761;BME280;15420;48.636;9.798;2023-02-04T02:46:07;97852.34;;;8.19;100.00
2761;BME280;15420;48.636;9.798;2023-02-04T02:48:36;97864.38;;;8.20;100.00
2761;BME280;15420;48.636;9.798;2023-02-04T02:51:02;97861.88;;;8.22;100.00
2761;BME280;15420;48.636;9.798;2023-02-04T02:53:28;97871.19;;;8.20;100.00
2761;BME280;15420;48.636;9.798;2023-02-04T02:55:55;97885.94;;;8.24;100.00
2761;BME280;15420;48.636;9.798;2023-02-04T02:58:28;97882.41;;;8.22;100.00
2761;BME280;15420;48.636;9.798;2023-02-04T03:00:57;97875.44;;;8.19;100.00
2761;BME280;15420;48.636;9.798;2023-02-04T03:03:31;97879.41;;;8.13;100.00
2761;BME280;15420;48.636;9.798;2023-02-04T03:06:03;97882.19;;;8.17;100.00
2761;BME280;15420;48.636;9.798;2023-02-04T03:08:34;97885.78;;;8.21;100.00
2761;BME280;15420;48.636;9.798;2023-02-04T03:11:01;97888.06;;;8.15;100.00
2761;BME280;15420;48.636;9.798;2023-02-04T03:13:27;97888.72;;;8.11;100.00
2761;BME280;15420;48.636;9.798;2023-02-04T03:15:54;97893.28;;;8.16;100.00
2761;BME280;15420;48.636;9.798;2023-02-04T03:18:23;97893.13;;;8.13;100.00
2761;BME280;15420;48.636;9.798;2023-02-04T03:20:50;97900.97;;;8.16;100.00
2761;BME280;15420;48.636;9.798;2023-02-04T03:23:19;97905.38;;;8.19;100.00
2761;BME280;15420;48.636;9.798;2023-02-04T03:25:46;97905.38;;;8.19;100.00
2761;BME280;15420;48.636;9.798;2023-02-04T03:28:12;97907.78;;;8.16;100.00
2761;BME280;15420;48.636;9.798;2023-02-04T03:30:38;97909.47;;;8.15;100.00
2761;BME280;15420;48.636;9.798;2023-02-04T03:33:06;97922.16;;;8.12;100.00
2761;BME280;15420;48.636;9.798;2023-02-04T03:35:37;97926.94;;;8.23;100.00
2761;BME280;15420;48.636;9.798;2023-02-04T03:38:03;97926.63;;;8.16;100.00
2761;BME280;15420;48.636;9.798;2023-02-04T03:40:29;97934.25;;;8.15;100.00
2761;BME280;15420;48.636;9.798;2023-02-04T03:42:55;97936.97;;;8.18;100.00
2761;BME280;15420;48.636;9.798;2023-02-04T03:45:24;97947.97;;;8.15;100.00
2761;BME280;15420;48.636;9.798;2023-02-04T03:47:50;97949.66;;;8.15;100.00
2761;BME280;15420;48.636;9.798;2023-02-04T03:50:18;97952.22;;;8.15;100.00
2761;BME280;15420;48.636;9.798;2023-02-04T03:52:45;97962.56;;;8.16;100.00
2761;BME280;15420;48.636;9.798;2023-02-04T03:55:11;97948.47;;;8.08;100.00
2761;BME280;15420;48.636;9.798;2023-02-04T03:57:37;97950.41;;;8.12;100.00
2761;BME280;15420;48.636;9.798;2023-02-04T04:00:05;97952.09;;;8.12;100.00
2761;BME280;15420;48.636;9.798;2023-02-04T04:02:32;97949.44;;;8.10;100.00
2761;BME280;15420;48.636;9.798;2023-02-04T04:04:58;97952.50;;;8.03;100.00
2761;BME280;15420;48.636;9.798;2023-02-04T04:07:24;97948.97;;;8.01;100.00
2761;BME280;15420;48.636;9.798;2023-02-04T04:09:54;97951.63;;;8.03;100.00
2761;BME280;15420;48.636;9.798;2023-02-04T04:12:25;97950.03;;;8.05;100.00
2761;BME280;15420;48.636;9.798;2023-02-04T04:14:55;97957.41;;;7.99;100.00
2761;BME280;15420;48.636;9.798;2023-02-04T04:17:22;97959.41;;;8.04;100.00
2761;BME280;15420;48.636;9.798;2023-02-04T04:19:48;97956.44;;;7.97;100.00
2761;BME280;15420;48.636;9.798;2023-02-04T04:22:14;97964.00;;;7.94;100.00
2761;BME280;15420;48.636;9.798;2023-02-04T04:24:42;97966.50;;;7.92;100.00
2761;BME280;15420;48.636;9.798;2023-02-04T04:27:11;97960.84;;;7.99;100.00
2761;BME280;15420;48.636;9.798;2023-02-04T04:29:39;97953.72;;;7.94;100.00
2761;BME280;15420;48.636;9.798;2023-02-04T04:32:10;97962.25;;;7.93;100.00
2761;BME280;15420;48.636;9.798;2023-02-04T04:34:39;97966.50;;;7.92;100.00
2761;BME280;15420;48.636;9.798;2023-02-04T04:37:05;97961.13;;;7.87;100.00
2761;BME280;15420;48.636;9.798;2023-02-04T04:39:31;97966.81;;;7.82;100.00
2761;BME280;15420;48.636;9.798;2023-02-04T04:41:59;97977.91;;;7.81;100.00
2761;BME280;15420;48.636;9.798;2023-02-04T04:44:28;97985.44;;;7.78;100.00
2761;BME280;15420;48.636;9.798;2023-02-04T04:46:54;97993.06;;;7.76;100.00
2761;BME280;15420;48.636;9.798;2023-02-04T04:49:23;97997.94;;;7.72;100.00
2761;BME280;15420;48.636;9.798;2023-02-04T04:51:52;97999.31;;;7.65;100.00
2761;BME280;15420;48.636;9.798;2023-02-04T04:54:18;97999.94;;;7.61;100.00
2761;BME280;15420;48.636;9.798;2023-02-04T04:56:49;97997.94;;;7.55;100.00
2761;BME280;15420;48.636;9.798;2023-02-04T04:59:15;98001.97;;;7.50;100.00
2761;BME280;15420;48.636;9.798;2023-02-04T05:01:41;98008.69;;;7.48;100.00
2761;BME280;15420;48.636;9.798;2023-02-04T05:04:10;98004.28;;;7.46;100.00
2761;BME280;15420;48.636;9.798;2023-02-04T05:06:36;98001.56;;;7.43;100.00
2761;BME280;15420;48.636;9.798;2023-02-04T05:09:02;98008.19;;;7.39;100.00
2761;BME280;15420;48.636;9.798;2023-02-04T05:11:33;98013.34;;;7.39;100.00
2761;BME280;15420;48.636;9.798;2023-02-04T05:13:59;98020.13;;;7.39;100.00
2761;BME280;15420;48.636;9.798;2023-02-04T05:16:28;98019.97;;;7.36;100.00
2761;BME280;15420;48.636;9.798;2023-02-04T05:18:56;98018.28;;;7.36;100.00
2761;BME280;15420;48.636;9.798;2023-02-04T05:21:25;98015.56;;;7.33;100.00
2761;BME280;15420;48.636;9.798;2023-02-04T05:23:56;98019.91;;;7.34;100.00
2761;BME280;15420;48.636;9.798;2023-02-04T05:26:22;98017.25;;;7.33;100.00
2761;BME280;15420;48.636;9.798;2023-02-04T05:28:48;98020.63;;;7.32;100.00
2761;BME280;15420;48.636;9.798;2023-02-04T05:31:14;98026.47;;;7.29;100.00
2761;BME280;15420;48.636;9.798;2023-02-04T05:33:40;98020.31;;;7.26;100.00
2761;BME280;15420;48.636;9.798;2023-02-04T05:36:09;98022.22;;;7.30;100.00
2761;BME280;15420;48.636;9.798;2023-02-04T05:38:35;98023.91;;;7.29;100.00
2761;BME280;15420;48.636;9.798;2023-02-04T05:41:03;98027.94;;;7.24;100.00
2761;BME280;15420;48.636;9.798;2023-02-04T05:43:30;98039.78;;;7.22;100.00
2761;BME280;15420;48.636;9.798;2023-02-04T05:45:56;98047.38;;;7.20;100.00
2761;BME280;15420;48.636;9.798;2023-02-04T05:48:22;98043.94;;;7.20;100.00
2761;BME280;15420;48.636;9.798;2023-02-04T05:50:48;98045.69;;;7.21;100.00
2761;BME280;15420;48.636;9.798;2023-02-04T05:53:17;98042.97;;;7.18;100.00
2761;BME280;15420;48.636;9.798;2023-02-04T05:55:45;98042.88;;;7.16;100.00
2761;BME280;15420;48.636;9.798;2023-02-04T05:58:14;98044.50;;;7.14;100.00
2761;BME280;15420;48.636;9.798;2023-02-04T06:00:42;98042.63;;;7.12;100.00
2761;BME280;15420;48.636;9.798;2023-02-04T06:03:08;98039.19;;;7.11;100.00
2761;BME280;15420;48.636;9.798;2023-02-04T06:05:35;98042.38;;;7.07;100.00
2761;BME280;15420;48.636;9.798;2023-02-04T06:08:01;98048.22;;;7.05;100.00
2761;BME280;15420;48.636;9.798;2023-02-04T06:10:27;98055.75;;;7.02;100.00
2761;BME280;15420;48.636;9.798;2023-02-04T06:12:53;98064.13;;;6.99;100.00
2761;BME280;15420;48.636;9.798;2023-02-04T06:15:19;98073.50;;;6.99;100.00
2761;BME280;15420;48.636;9.798;2023-02-04T06:17:45;98088.00;;;6.98;100.00
2761;BME280;15420;48.636;9.798;2023-02-04T06:20:16;98074.22;;;6.96;100.00
2761;BME280;15420;48.636;9.798;2023-02-04T06:22:42;98083.59;;;6.96;100.00
2761;BME280;15420;48.636;9.798;2023-02-04T06:25:10;98098.06;;;6.95;100.00
2761;BME280;15420;48.636;9.798;2023-02-04T06:27:41;98092.94;;;6.95;100.00
2761;BME280;15420;48.636;9.798;2023-02-04T06:30:08;98088.53;;;6.93;100.00
2761;BME280;15420;48.636;9.798;2023-02-04T06:32:35;98105.50;;;6.91;100.00
2761;BME280;15420;48.636;9.798;2023-02-04T06:35:04;98110.53;;;6.89;100.00
2761;BME280;15420;48.636;9.798;2023-02-04T06:37:30;98116.38;;;6.86;100.00
2761;BME280;15420;48.636;9.798;2023-02-04T06:39:56;98113.72;;;6.85;100.00
2761;BME280;15420;48.636;9.798;2023-02-04T06:42:25;98127.25;;;6.82;100.00
2761;BME280;15420;48.636;9.798;2023-02-04T06:44:54;98131.38;;;6.80;100.00
2761;BME280;15420;48.636;9.798;2023-02-04T06:47:22;98132.09;;;6.78;100.00
2761;BME280;15420;48.636;9.798;2023-02-04T06:49:48;98135.38;;;6.75;100.00
2761;BME280;15420;48.636;9.798;2023-02-04T06:52:14;98136.78;;;6.70;100.00
2761;BME280;15420;48.636;9.798;2023-02-04T06:54:43;98132.44;;;6.69;100.00
2761;BME280;15420;48.636;9.798;2023-02-04T06:57:11;98132.38;;;6.68;100.00
2761;BME280;15420;48.636;9.798;2023-02-04T06:59:39;98133.94;;;6.66;100.00
2761;BME280;15420;48.636;9.798;2023-02-04T07:02:06;98139.88;;;6.65;100.00
2761;BME280;15420;48.636;9.798;2023-02-04T07:04:33;98145.69;;;6.62;100.00
2761;BME280;15420;48.636;9.798;2023-02-04T07:07:00;98152.41;;;6.60;100.00
2761;BME280;15420;48.636;9.798;2023-02-04T07:09:31;98162.56;;;6.59;100.00
2761;BME280;15420;48.636;9.798;2023-02-04T07:11:59;98158.22;;;6.57;100.00
2761;BME280;15420;48.636;9.798;2023-02-04T07:14:30;98173.59;;;6.57;100.00
2761;BME280;15420;48.636;9.798;2023-02-04T07:16:59;98176.94;;;6.56;100.00
2761;BME280;15420;48.636;9.798;2023-02-04T07:19:25;98175.28;;;6.57;100.00
2761;BME280;15420;48.636;9.798;2023-02-04T07:21:53;98170.16;;;6.57;100.00
2761;BME280;15420;48.636;9.798;2023-02-04T07:24:22;98170.16;;;6.57;100.00
2761;BME280;15420;48.636;9.798;2023-02-04T07:26:51;98182.06;;;6.56;100.00
2761;BME280;15420;48.636;9.798;2023-02-04T07:29:17;98188.16;;;6.59;100.00
2761;BME280;15420;48.636;9.798;2023-02-04T07:31:46;98186.47;;;6.59;100.00
2761;BME280;15420;48.636;9.798;2023-02-04T07:34:13;98185.69;;;6.60;100.00
2761;BME280;15420;48.636;9.798;2023-02-04T07:36:41;98190.81;;;6.60;100.00
2761;BME280;15420;48.636;9.798;2023-02-04T07:39:10;98202.91;;;6.63;100.00
2761;BME280;15420;48.636;9.798;2023-02-04T07:41:39;98203.78;;;6.63;100.00
2761;BME280;15420;48.636;9.798;2023-02-04T07:44:05;98209.81;;;6.64;100.00
2761;BME280;15420;48.636;9.798;2023-02-04T07:46:32;98211.56;;;6.65;100.00
2761;BME280;15420;48.636;9.798;2023-02-04T07:49:00;98215.91;;;6.66;100.00
2761;BME280;15420;48.636;9.798;2023-02-04T07:51:26;98225.34;;;6.67;100.00
2761;BME280;15420;48.636;9.798;2023-02-04T07:53:55;98229.69;;;6.68;100.00
2761;BME280;15420;48.636;9.798;2023-02-04T07:56:48;98231.53;;;6.70;100.00
2761;BME280;15420;48.636;9.798;2023-02-04T07:59:33;98233.03;;;6.67;100.00
2761;BME280;15420;48.636;9.798;2023-02-04T08:01:59;98240.00;;;6.69;100.00
2761;BME280;15420;48.636;9.798;2023-02-04T08:04:26;98240.00;;;6.69;100.00
2761;BME280;15420;48.636;9.798;2023-02-04T08:06:53;98247.00;;;6.72;100.00
2761;BME280;15420;48.636;9.798;2023-02-04T08:09:19;98243.63;;;6.73;100.00
2761;BME280;15420;48.636;9.798;2023-02-04T08:11:45;98245.41;;;6.74;100.00
2761;BME280;15420;48.636;9.798;2023-02-04T08:14:13;98246.38;;;6.76;100.00
2761;BME280;15420;48.636;9.798;2023-02-04T08:16:40;98244.69;;;6.76;100.00
2761;BME280;15420;48.636;9.798;2023-02-04T08:19:06;98252.47;;;6.78;100.00
2761;BME280;15420;48.636;9.798;2023-02-04T08:21:34;98250.81;;;6.78;100.00
2761;BME280;15420;48.636;9.798;2023-02-04T08:24:01;98255.50;;;7.00;100.00
2761;BME280;15420;48.636;9.798;2023-02-04T08:26:27;98255.75;;;6.90;100.00
2761;BME280;15420;48.636;9.798;2023-02-04T08:28:55;98257.25;;;6.86;100.00
2761;BME280;15420;48.636;9.798;2023-02-04T08:31:27;98259.91;;;6.88;100.00
2761;BME280;15420;48.636;9.798;2023-02-04T08:33:55;98255.75;;;6.90;100.00
2761;BME280;15420;48.636;9.798;2023-02-04T08:36:26;98259.22;;;6.91;100.00
2761;BME280;15420;48.636;9.798;2023-02-04T08:38:53;98261.88;;;6.92;100.00
2761;BME280;15420;48.636;9.798;2023-02-04T08:41:19;98273.09;;;6.94;100.00
2761;BME280;15420;48.636;9.798;2023-02-04T08:43:47;98274.06;;;6.96;100.00
2761;BME280;15420;48.636;9.798;2023-02-04T08:46:13;98276.72;;;6.98;100.00
2761;BME280;15420;48.636;9.798;2023-02-04T08:48:42;98272.56;;;7.00;100.00
2761;BME280;15420;48.636;9.798;2023-02-04T08:51:08;98277.78;;;7.01;100.00
2761;BME280;15420;48.636;9.798;2023-02-04T08:53:36;98289.78;;;7.02;100.00
2761;BME280;15420;48.636;9.798;2023-02-04T08:56:05;98291.47;;;7.02;100.00
2761;BME280;15420;48.636;9.798;2023-02-04T08:58:32;98289.09;;;7.05;100.00
2761;BME280;15420;48.636;9.798;2023-02-04T09:00:58;98285.72;;;7.06;100.00
2761;BME280;15420;48.636;9.798;2023-02-04T09:03:24;98289.28;;;7.08;100.00
2761;BME280;15420;48.636;9.798;2023-02-04T09:05:50;98290.16;;;7.08;100.00
2761;BME280;15420;48.636;9.798;2023-02-04T09:08:16;98286.88;;;7.11;100.00
2761;BME280;15420;48.636;9.798;2023-02-04T09:10:42;98298.13;;;7.13;100.00
2761;BME280;15420;48.636;9.798;2023-02-04T09:13:11;98305.97;;;7.16;100.00
2761;BME280;15420;48.636;9.798;2023-02-04T09:15:39;98306.06;;;7.17;100.00
2761;BME280;15420;48.636;9.798;2023-02-04T09:18:07;98311.28;;;7.19;100.00
2761;BME280;15420;48.636;9.798;2023-02-04T09:20:42;98309.59;;;7.19;100.00
2761;BME280;15420;48.636;9.798;2023-02-04T09:23:11;98302.91;;;7.21;100.00
2761;BME280;15420;48.636;9.798;2023-02-04T09:25:42;98306.44;;;7.24;100.00
2761;BME280;15420;48.636;9.798;2023-02-04T09:28:09;98308.09;;;7.23;100.00
2761;BME280;15420;48.636;9.798;2023-02-04T09:30:37;98314.91;;;7.22;100.00
2761;BME280;15420;48.636;9.798;2023-02-04T09:33:09;98315.19;;;7.27;100.00
2761;BME280;15420;48.636;9.798;2023-02-04T09:35:38;98327.81;;;7.24;100.00
2761;BME280;15420;48.636;9.798;2023-02-04T09:38:07;98328.69;;;7.25;100.00
2761;BME280;15420;48.636;9.798;2023-02-04T09:40:37;98326.94;;;7.24;100.00
2761;BME280;15420;48.636;9.798;2023-02-04T09:43:05;98326.13;;;7.25;100.00
2761;BME280;15420;48.636;9.798;2023-02-04T09:45:34;98332.06;;;7.24;99.72
2761;BME280;15420;48.636;9.798;2023-02-04T09:48:03;98339.94;;;7.27;99.77
2761;BME280;15420;48.636;9.798;2023-02-04T09:50:32;98343.38;;;7.27;98.76
2761;BME280;15420;48.636;9.798;2023-02-04T09:53:02;98350.19;;;7.27;98.99
2761;BME280;15420;48.636;9.798;2023-02-04T09:55:31;98348.50;;;7.27;99.05
2761;BME280;15420;48.636;9.798;2023-02-04T09:57:58;98350.97;;;7.26;98.69
2761;BME280;15420;48.636;9.798;2023-02-04T10:00:27;98346.84;;;7.28;98.69
2761;BME280;15420;48.636;9.798;2023-02-04T10:02:55;98347.69;;;7.28;97.78
2761;BME280;15420;48.636;9.798;2023-02-04T10:05:28;98351.13;;;7.29;97.64
2761;BME280;15420;48.636;9.798;2023-02-04T10:07:54;98352.91;;;7.30;97.90
2761;BME280;15420;48.636;9.798;2023-02-04T10:10:23;98348.91;;;7.35;98.16
2761;BME280;15420;48.636;9.798;2023-02-04T10:12:58;98347.06;;;7.47;100.00
2761;BME280;15420;48.636;9.798;2023-02-04T10:15:26;98351.94;;;7.57;100.00
2761;BME280;15420;48.636;9.798;2023-02-04T10:18:05;98343.97;;;7.67;100.00
2761;BME280;15420;48.636;9.798;2023-02-04T10:20:32;98347.25;;;7.65;100.00
2761;BME280;15420;48.636;9.798;2023-02-04T10:23:01;98343.63;;;7.61;100.00
2761;BME280;15420;48.636;9.798;2023-02-04T10:25:29;98350.25;;;7.58;99.36
2761;BME280;15420;48.636;9.798;2023-02-04T10:27:57;98356.81;;;7.52;99.52
2761;BME280;15420;48.636;9.798;2023-02-04T10:30:29;98351.50;;;7.49;98.56
2761;BME280;15420;48.636;9.798;2023-02-04T10:33:10;98353.72;;;7.43;98.09
2761;BME280;15420;48.636;9.798;2023-02-04T10:35:47;98344.25;;;7.42;97.16
2761;BME280;15420;48.636;9.798;2023-02-04T10:38:18;98350.88;;;7.39;97.05
2761;BME280;15420;48.636;9.798;2023-02-04T10:40:44;98340.44;;;7.36;96.89
2761;BME280;15420;48.636;9.798;2023-02-04T10:43:23;98341.22;;;7.35;96.81
2761;BME280;15420;48.636;9.798;2023-02-04T10:46:02;98347.06;;;7.32;96.80
2761;BME280;15420;48.636;9.798;2023-02-04T10:48:29;98339.19;;;7.29;97.34
2761;BME280;15420;48.636;9.798;2023-02-04T10:51:03;98341.75;;;7.29;97.11
2761;BME280;15420;48.636;9.798;2023-02-04T10:53:30;98339.84;;;7.25;96.97
2761;BME280;15420;48.636;9.798;2023-02-04T10:56:31;98342.31;;;7.24;97.69
2761;BME280;15420;48.636;9.798;2023-02-04T10:59:00;98342.22;;;7.22;97.15
2761;BME280;15420;48.636;9.798;2023-02-04T11:01:30;98343.03;;;7.21;97.68
2761;BME280;15420;48.636;9.798;2023-02-04T11:03:57;98346.47;;;7.21;97.75
2761;BME280;15420;48.636;9.798;2023-02-04T11:06:27;98346.38;;;7.20;97.49
2761;BME280;15420;48.636;9.798;2023-02-04T11:08:58;98344.69;;;7.20;97.86
2761;BME280;15420;48.636;9.798;2023-02-04T11:11:27;98342.03;;;7.19;98.07
2761;BME280;15420;48.636;9.798;2023-02-04T11:13:57;98339.56;;;7.20;97.45
2761;BME280;15420;48.636;9.798;2023-02-04T11:16:32;98343.09;;;7.22;97.83
2761;BME280;15420;48.636;9.798;2023-02-04T11:19:03;98346.47;;;7.21;98.42
2761;BME280;15420;48.636;9.798;2023-02-04T11:26:37;98350.72;;;7.21;98.41
2761;BME280;15420;48.636;9.798;2023-02-04T11:39:48;98342.31;;;7.24;98.03
2761;BME280;15420;48.636;9.798;2023-02-04T11:42:31;98345.13;;;7.28;98.34
2761;BME280;15420;48.636;9.798;2023-02-04T11:48:01;98339.63;;;7.37;98.11
2761;BME280;15420;48.636;9.798;2023-02-04T11:50:33;98345.03;;;7.41;97.96
2761;BME280;15420;48.636;9.798;2023-02-04T11:53:01;98336.63;;;7.44;97.59
2761;BME280;15420;48.636;9.798;2023-02-04T11:55:28;98333.47;;;7.48;97.81
2761;BME280;15420;48.636;9.798;2023-02-04T11:57:55;98328.59;;;7.52;98.24
2761;BME280;15420;48.636;9.798;2023-02-04T12:00:32;98332.13;;;7.54;97.29
2761;BME280;15420;48.636;9.798;2023-02-04T12:03:03;98329.47;;;7.53;97.89
2761;BME280;15420;48.636;9.798;2023-02-04T12:05:44;98331.25;;;7.54;97.90
2761;BME280;15420;48.636;9.798;2023-02-04T12:13:26;98342.91;;;7.49;96.24
2761;BME280;15420;48.636;9.798;2023-02-04T12:16:02;98338.69;;;7.49;96.16
2761;BME280;15420;48.636;9.798;2023-02-04T12:18:30;98341.25;;;7.49;96.09
2761;BME280;15420;48.636;9.798;2023-02-04T12:20:59;98343.91;;;7.51;95.24
2761;BME280;15420;48.636;9.798;2023-02-04T12:23:27;98347.34;;;7.51;95.84
2761;BME280;15420;48.636;9.798;2023-02-04T12:25:57;98352.66;;;7.54;94.63
2761;BME280;15420;48.636;9.798;2023-02-04T12:28:24;98346.72;;;7.55;94.81
2761;BME280;15420;48.636;9.798;2023-02-04T12:30:51;98347.25;;;7.65;92.88
2761;BME280;15420;48.636;9.798;2023-02-04T12:33:21;98349.28;;;7.85;92.33
2761;BME280;15420;48.636;9.798;2023-02-04T12:35:48;98343.09;;;7.67;92.08
2761;BME280;15420;48.636;9.798;2023-02-04T12:38:14;98344.78;;;7.66;92.05
2761;BME280;15420;48.636;9.798;2023-02-04T12:40:40;98346.53;;;7.67;91.66
2761;BME280;15420;48.636;9.798;2023-02-04T12:43:06;98353.63;;;7.71;91.34
2761;BME280;15420;48.636;9.798;2023-02-04T12:45:33;98353.00;;;7.75;91.07
2761;BME280;15420;48.636;9.798;2023-02-04T12:47:59;98349.81;;;7.79;90.15
2761;BME280;15420;48.636;9.798;2023-02-04T12:50:28;98349.28;;;7.85;90.60
2761;BME280;15420;48.636;9.798;2023-02-04T12:52:58;98353.78;;;7.89;90.56
2761;BME280;15420;48.636;9.798;2023-02-04T12:55:28;98350.59;;;7.93;91.18
2761;BME280;15420;48.636;9.798;2023-02-04T12:57:59;98356.69;;;7.95;90.67
2761;BME280;15420;48.636;9.798;2023-02-04T13:00:25;98344.84;;;7.97;90.85
2761;BME280;15420;48.636;9.798;2023-02-04T13:02:52;98350.94;;;7.99;89.58
2761;BME280;15420;48.636;9.798;2023-02-04T13:05:22;98369.00;;;8.01;89.40
2761;BME280;15420;48.636;9.798;2023-02-04T13:07:50;98365.63;;;8.02;89.38
2761;BME280;15420;48.636;9.798;2023-02-04T13:10:16;98363.94;;;8.02;88.46
2761;BME280;15420;48.636;9.798;2023-02-04T13:12:43;98370.06;;;8.04;88.10
2761;BME280;15420;48.636;9.798;2023-02-04T13:15:14;98365.00;;;8.06;88.77
2761;BME280;15420;48.636;9.798;2023-02-04T13:17:40;98372.69;;;8.06;87.71
2761;BME280;15420;48.636;9.798;2023-02-04T13:20:09;98365.88;;;8.06;88.18
2761;BME280;15420;48.636;9.798;2023-02-04T13:22:38;98371.09;;;8.08;87.58
2761;BME280;15420;48.636;9.798;2023-02-04T13:25:05;98361.00;;;8.11;86.93
2761;BME280;15420;48.636;9.798;2023-02-04T13:27:31;98368.09;;;8.15;86.67
2761;BME280;15420;48.636;9.798;2023-02-04T13:29:57;98369.06;;;8.17;87.89
2761;BME280;15420;48.636;9.798;2023-02-04T13:32:24;98371.88;;;8.22;87.37
2761;BME280;15420;48.636;9.798;2023-02-04T13:34:50;98379.84;;;8.26;87.23
2761;BME280;15420;48.636;9.798;2023-02-04T13:37:16;98375.75;;;8.30;87.68
2761;BME280;15420;48.636;9.798;2023-02-04T13:39:42;98376.81;;;8.33;86.71
2761;BME280;15420;48.636;9.798;2023-02-04T13:42:10;98378.66;;;8.36;86.79
2761;BME280;15420;48.636;9.798;2023-02-04T13:44:36;98370.16;;;8.37;87.09